createdAt,value
2018-04-02T00:00:13.669Z,98930.28
2018-04-02T00:02:41.164Z,98937.93
2018-04-02T00:05:08.613Z,98945.16
2018-04-02T00:07:36.204Z,98956.49
2018-04-02T00:10:03.712Z,98953.50
2018-04-02T00:12:31.163Z,98955.22
2018-04-02T00:14:58.658Z,98956.05
2018-04-02T00:17:26.115Z,98967.48
2018-04-02T00:19:53.571Z,98970.42
2018-04-02T00:22:21.052Z,98963.24
2018-04-02T00:24:48.512Z,98965.73
2018-04-02T00:27:15.974Z,98971.66
2018-04-02T00:29:43.452Z,98988.61
2018-04-02T00:32:10.903Z,98965.69
2018-04-02T00:34:38.347Z,99005.06
2018-04-02T00:37:05.836Z,98988.94
2018-04-02T00:39:33.285Z,98982.50
2018-04-02T00:42:00.739Z,98981.59
2018-04-02T00:44:28.256Z,98990.02
2018-04-02T00:46:55.710Z,98996.77
2018-04-02T00:49:23.188Z,98988.26
2018-04-02T00:51:50.630Z,98989.56
2018-04-02T00:54:18.070Z,98993.38
2018-04-02T00:56:45.786Z,99000.10
2018-04-02T00:59:13.249Z,99005.95
2018-04-02T01:01:40.755Z,98998.77
2018-04-02T01:04:08.211Z,99003.83
2018-04-02T01:06:35.665Z,99001.67
2018-04-02T01:09:03.167Z,99008.92
2018-04-02T01:11:30.643Z,99002.55
2018-04-02T01:13:58.088Z,99007.67
2018-04-02T01:16:25.557Z,99008.86
2018-04-02T01:18:53.028Z,99016.55
2018-04-02T01:21:20.481Z,99011.94
2018-04-02T01:23:47.960Z,99022.12
2018-04-02T01:26:15.408Z,99035.73
2018-04-02T01:28:43.670Z,99032.39
2018-04-02T01:31:11.124Z,99030.31
2018-04-02T01:33:38.564Z,99037.93
2018-04-02T01:36:06.011Z,99034.13
2018-04-02T01:38:33.477Z,99033.72
2018-04-02T01:41:00.925Z,99037.61
2018-04-02T01:43:28.370Z,99037.27
2018-04-02T01:45:55.840Z,99027.14
2018-04-02T01:48:23.359Z,99041.09
2018-04-02T01:50:50.823Z,99046.66
2018-04-02T01:53:18.277Z,99036.57
2018-04-02T01:55:45.727Z,99037.88
2018-04-02T01:58:13.176Z,99032.81
2018-04-02T02:00:40.740Z,99050.18
2018-04-02T02:03:08.199Z,99033.27
2018-04-02T02:05:35.672Z,99042.63
2018-04-02T02:08:03.128Z,99047.25
2018-04-02T02:10:30.579Z,99051.05
2018-04-02T02:12:58.037Z,99055.69
2018-04-02T02:15:25.597Z,99052.75
2018-04-02T02:17:53.059Z,99058.23
2018-04-02T02:20:20.500Z,99051.06
2018-04-02T02:22:47.955Z,99056.09
2018-04-02T02:25:15.437Z,99051.09
2018-04-02T02:27:42.931Z,99058.72
2018-04-02T02:30:10.385Z,99065.88
2018-04-02T02:32:37.864Z,99061.64
2018-04-02T02:35:05.320Z,99066.37
2018-04-02T02:37:32.797Z,99066.31
2018-04-02T02:40:00.253Z,99076.12
2018-04-02T02:42:27.686Z,99081.16
2018-04-02T02:44:55.168Z,99078.62
2018-04-02T02:47:22.731Z,99072.28
2018-04-02T02:49:50.171Z,99063.77
2018-04-02T02:52:17.655Z,99070.91
2018-04-02T02:54:45.106Z,99074.71
2018-04-02T02:57:12.563Z,99087.06
2018-04-02T02:59:40.032Z,99083.70
2018-04-02T03:02:07.465Z,99079.00
2018-04-02T03:04:34.949Z,99080.30
2018-04-02T03:07:02.418Z,99078.70
2018-04-02T03:09:29.887Z,99086.69
2018-04-02T03:11:57.339Z,99088.82
2018-04-02T03:14:24.796Z,99079.50
2018-04-02T03:16:52.257Z,99082.88
2018-04-02T03:19:19.714Z,99086.33
2018-04-02T03:21:47.772Z,99086.37
2018-04-02T03:24:15.222Z,99087.98
2018-04-02T03:26:42.982Z,99088.45
2018-04-02T03:29:10.438Z,99093.55
2018-04-02T03:31:37.881Z,99088.81
2018-04-02T03:34:05.344Z,99090.00
2018-04-02T03:36:32.807Z,99090.01
2018-04-02T03:39:00.248Z,99089.64
2018-04-02T03:41:27.731Z,99083.70
2018-04-02T03:43:55.171Z,99086.66
2018-04-02T03:46:22.614Z,99085.02
2018-04-02T03:48:50.079Z,99090.88
2018-04-02T03:51:17.542Z,99082.48
2018-04-02T03:53:45.043Z,99089.67
2018-04-02T03:56:12.515Z,99094.70
2018-04-02T03:58:39.968Z,99090.42
2018-04-02T04:01:07.788Z,99097.59
2018-04-02T04:03:35.234Z,99102.70
2018-04-02T04:06:05.886Z,99112.47
2018-04-02T04:08:33.327Z,99116.13
2018-04-02T04:11:00.791Z,99108.92
2018-04-02T04:13:28.252Z,99109.75
2018-04-02T04:15:55.740Z,99112.72
2018-04-02T04:18:23.203Z,99127.16
2018-04-02T04:20:51.018Z,99118.65
2018-04-02T04:23:18.456Z,99114.88
2018-04-02T04:25:46.033Z,99124.27
2018-04-02T04:28:13.490Z,99129.33
2018-04-02T04:30:40.962Z,99122.58
2018-04-02T04:33:08.418Z,99130.55
2018-04-02T04:35:35.874Z,99141.95
2018-04-02T04:38:03.374Z,99134.33
2018-04-02T04:40:30.864Z,99139.00
2018-04-02T04:42:58.290Z,99144.55
2018-04-02T04:45:25.980Z,99147.09
2018-04-02T04:47:54.723Z,99148.34
2018-04-02T04:50:22.226Z,99151.73
2018-04-02T04:52:49.862Z,99155.47
2018-04-02T04:55:17.329Z,99150.33
2018-04-02T04:57:44.812Z,99158.77
2018-04-02T05:00:12.298Z,99158.75
2018-04-02T05:02:39.746Z,99167.22
2018-04-02T05:05:07.351Z,99173.52
2018-04-02T05:07:35.038Z,99178.53
2018-04-02T05:10:02.608Z,99181.52
2018-04-02T05:12:30.091Z,99187.02
2018-04-02T05:14:57.568Z,99178.86
2018-04-02T05:17:25.062Z,99184.42
2018-04-02T05:19:52.544Z,99181.92
2018-04-02T05:22:20.118Z,99195.92
2018-04-02T05:24:47.579Z,99194.59
2018-04-02T05:27:15.082Z,99211.11
2018-04-02T05:29:42.566Z,99210.71
2018-04-02T05:32:10.039Z,99205.19
2018-04-02T05:34:37.753Z,99214.45
2018-04-02T05:37:05.227Z,99216.55
2018-04-02T05:39:32.720Z,99213.95
2018-04-02T05:42:00.202Z,99217.78
2018-04-02T05:44:27.656Z,99221.59
2018-04-02T05:46:56.230Z,99217.80
2018-04-02T05:49:23.701Z,99217.78
2018-04-02T05:51:51.213Z,99210.97
2018-04-02T05:54:18.689Z,99211.34
2018-04-02T05:56:46.160Z,99217.61
2018-04-02T05:59:13.630Z,99224.34
2018-04-02T06:01:41.135Z,99228.19
2018-04-02T06:04:08.621Z,99225.57
2018-04-02T06:06:36.112Z,99231.43
2018-04-02T06:09:04.034Z,99226.66
2018-04-02T06:11:31.942Z,99250.42
2018-04-02T06:13:59.502Z,99241.88
2018-04-02T06:16:27.933Z,99224.48
2018-04-02T06:18:55.501Z,99230.79
2018-04-02T06:21:22.997Z,99238.25
2018-04-02T06:23:50.500Z,99230.22
2018-04-02T06:26:17.989Z,99238.73
2018-04-02T06:28:45.447Z,99238.34
2018-04-02T06:31:12.978Z,99246.32
2018-04-02T06:33:40.470Z,99258.64
2018-04-02T06:36:07.971Z,99262.00
2018-04-02T06:38:35.427Z,99255.64
2018-04-02T06:41:02.927Z,99258.55
2018-04-02T06:43:30.448Z,99268.72
2018-04-02T06:45:57.917Z,99271.63
2018-04-02T06:48:25.394Z,99284.83
2018-04-02T06:50:52.930Z,99275.42
2018-04-02T06:53:20.421Z,99278.27
2018-04-02T06:55:47.908Z,99278.59
2018-04-02T06:58:15.404Z,99279.27
2018-04-02T07:00:42.891Z,99273.52
2018-04-02T07:03:10.351Z,99278.01
2018-04-02T07:05:37.831Z,99280.64
2018-04-02T07:08:05.302Z,99281.38
2018-04-02T07:10:32.768Z,99293.32
2018-04-02T07:13:00.288Z,99289.41
2018-04-02T07:15:27.821Z,99285.55
2018-04-02T07:17:55.319Z,99307.94
2018-04-02T07:20:22.867Z,99297.95
2018-04-02T07:22:50.365Z,99312.20
2018-04-02T07:25:17.865Z,99303.47
2018-04-02T07:27:45.370Z,99303.24
2018-04-02T07:30:12.877Z,99308.20
2018-04-02T07:32:40.403Z,99326.86
2018-04-02T07:35:07.911Z,99314.66
2018-04-02T07:37:35.438Z,99318.95
2018-04-02T07:40:02.913Z,99331.34
2018-04-02T07:42:30.391Z,99353.66
2018-04-02T07:44:57.910Z,99321.69
2018-04-02T07:47:25.436Z,99322.45
2018-04-02T07:49:53.962Z,99351.20
2018-04-02T07:52:21.440Z,99333.87
2018-04-02T07:54:48.905Z,99331.77
2018-04-02T07:57:16.414Z,99322.50
2018-04-02T07:59:43.879Z,99339.59
2018-04-02T08:02:11.349Z,99334.66
2018-04-02T08:04:38.883Z,99335.36
2018-04-02T08:07:06.369Z,99357.84
2018-04-02T08:09:34.133Z,99344.95
2018-04-02T08:12:01.623Z,99352.67
2018-04-02T08:14:29.108Z,99355.66
2018-04-02T08:16:56.650Z,99351.24
2018-04-02T08:19:24.257Z,99355.19
2018-04-02T08:21:51.739Z,99359.23
2018-04-02T08:24:19.224Z,99354.37
2018-04-02T08:26:46.702Z,99373.95
2018-04-02T08:29:14.176Z,99369.91
2018-04-02T08:31:41.664Z,99367.06
2018-04-02T08:34:09.133Z,99376.31
2018-04-02T08:36:36.649Z,99363.58
2018-04-02T08:39:04.158Z,99373.64
2018-04-02T08:41:31.641Z,99362.90
2018-04-02T08:43:59.146Z,99369.92
2018-04-02T08:46:26.632Z,99352.57
2018-04-02T08:48:54.144Z,99371.82
2018-04-02T08:51:21.629Z,99367.23
2018-04-02T08:53:49.113Z,99379.06
2018-04-02T08:56:16.594Z,99374.80
2018-04-02T08:58:44.132Z,99373.70
2018-04-02T09:01:11.642Z,99383.91
2018-04-02T09:03:39.112Z,99374.91
2018-04-02T09:06:06.587Z,99365.36
2018-04-02T09:08:34.068Z,99375.58
2018-04-02T09:11:01.523Z,99360.33
2018-04-02T09:13:29.036Z,99364.98
2018-04-02T09:15:58.070Z,99368.11
2018-04-02T09:18:25.690Z,99353.42
2018-04-02T09:20:54.533Z,99356.92
2018-04-02T09:23:22.179Z,99368.27
2018-04-02T09:25:49.804Z,99343.98
2018-04-02T09:28:17.548Z,99349.91
2018-04-02T09:30:45.429Z,99345.73
2018-04-02T09:33:13.235Z,99347.42
2018-04-02T09:35:40.858Z,99359.35
2018-04-02T09:38:09.183Z,99333.03
2018-04-02T09:40:38.454Z,99328.68
2018-04-02T09:43:06.106Z,99336.66
2018-04-02T09:45:34.722Z,99310.84
2018-04-02T09:48:04.735Z,99327.58
2018-04-02T09:50:33.011Z,99317.52
2018-04-02T09:53:00.617Z,99325.02
2018-04-02T09:55:28.280Z,99328.48
2018-04-02T09:58:01.952Z,99338.56
2018-04-02T10:00:33.741Z,99324.88
2018-04-02T10:03:01.766Z,99328.84
2018-04-02T10:19:59.454Z,99310.30
2018-04-02T10:22:28.348Z,99298.59
2018-04-02T10:24:56.113Z,99307.56
2018-04-02T10:27:23.768Z,99317.99
2018-04-02T10:29:51.379Z,99312.52
2018-04-02T10:32:20.295Z,99315.03
2018-04-02T10:34:47.850Z,99315.43
2018-04-02T10:37:15.767Z,99316.20
2018-04-02T10:42:16.354Z,99313.25
2018-04-02T10:44:44.002Z,99319.81
2018-04-02T10:47:11.800Z,99333.17
2018-04-02T10:49:39.461Z,99318.62
2018-04-02T10:52:07.737Z,99328.88
2018-04-02T10:54:35.485Z,99324.84
2018-04-02T10:57:03.610Z,99321.84
2018-04-02T10:59:31.809Z,99310.11
2018-04-02T11:01:59.719Z,99307.36
2018-04-02T11:04:27.526Z,99319.44
2018-04-02T11:06:55.536Z,99301.31
2018-04-02T11:09:23.697Z,99301.47
2018-04-02T11:11:51.598Z,99296.58
2018-04-02T11:14:19.355Z,99299.11
2018-04-02T11:16:47.050Z,99293.66
2018-04-02T11:19:15.089Z,99295.89
2018-04-02T11:21:42.654Z,99294.55
2018-04-02T11:24:10.395Z,99297.78
2018-04-02T11:26:38.066Z,99292.77
2018-04-02T11:29:05.781Z,99282.50
2018-04-02T11:31:33.550Z,99309.78
2018-04-02T11:34:01.259Z,99292.33
2018-04-02T11:36:29.043Z,99288.25
2018-04-02T11:38:58.455Z,99286.15
2018-04-02T11:41:26.356Z,99279.12
2018-04-02T11:43:54.433Z,99277.00
2018-04-02T11:46:22.184Z,99285.66
2018-04-02T11:48:50.000Z,99292.27
2018-04-02T11:51:17.777Z,99287.72
2018-04-02T11:53:45.674Z,99292.45
2018-04-02T11:56:13.699Z,99277.75
2018-04-02T11:58:41.416Z,99295.30
2018-04-02T12:01:09.241Z,99292.41
2018-04-02T12:03:36.981Z,99282.05
2018-04-02T12:06:05.288Z,99277.56
2018-04-02T12:08:32.971Z,99280.91
2018-04-02T12:11:00.589Z,99275.13
2018-04-02T12:13:28.194Z,99283.82
2018-04-02T12:15:56.121Z,99282.52
2018-04-02T12:18:23.834Z,99277.45
2018-04-02T12:20:51.565Z,99267.66
2018-04-02T12:23:19.544Z,99267.65
2018-04-02T12:25:47.335Z,99262.02
2018-04-02T12:28:17.300Z,99248.36
2018-04-02T12:30:45.162Z,99246.11
2018-04-02T12:33:12.750Z,99273.09
2018-04-02T12:35:41.444Z,99247.77
2018-04-02T12:38:09.413Z,99235.69
2018-04-02T12:45:41.603Z,99230.87
2018-04-02T12:48:09.407Z,99223.34
2018-04-02T12:50:41.221Z,99230.98
2018-04-02T12:53:13.571Z,99234.22
2018-04-02T12:55:42.858Z,99230.86
2018-04-02T12:58:13.811Z,99221.92
2018-04-02T13:05:45.492Z,99213.91
2018-04-02T13:08:25.196Z,99189.95
2018-04-02T13:10:53.418Z,99187.81
2018-04-02T13:13:23.222Z,99191.61
2018-04-02T13:15:52.303Z,99182.68
2018-04-02T13:18:25.417Z,99182.77
2018-04-02T13:25:58.020Z,99180.73
2018-04-02T13:28:25.954Z,99156.64
2018-04-02T13:30:57.538Z,99177.75
2018-04-02T13:33:26.326Z,99182.79
2018-04-02T13:38:31.650Z,99156.70
2018-04-02T13:41:00.005Z,99158.81
2018-04-02T13:49:31.117Z,99153.64
2018-04-02T13:52:05.813Z,99151.22
2018-04-02T13:57:06.968Z,99146.23
2018-04-02T14:02:29.785Z,99140.95
2018-04-02T14:04:58.422Z,99142.05
2018-04-02T14:07:26.512Z,99130.79
2018-04-02T14:09:54.685Z,99139.20
2018-04-02T14:12:26.133Z,99131.48
2018-04-02T14:14:53.950Z,99136.12
2018-04-02T14:17:22.400Z,99126.03
2018-04-02T14:19:51.776Z,99119.80
2018-04-02T14:22:21.201Z,99119.70
2018-04-02T14:24:49.623Z,99116.61
2018-04-02T14:27:18.604Z,99117.33
2018-04-02T14:29:46.294Z,99112.56
2018-04-02T14:32:14.089Z,99109.94
2018-04-02T14:43:31.307Z,99105.78
2018-04-02T14:45:58.999Z,99103.50
2018-04-02T14:48:26.553Z,99103.48
2018-04-02T14:50:54.231Z,99102.45
2018-04-02T14:53:22.272Z,99095.81
2018-04-02T14:55:49.971Z,99088.81
2018-04-02T14:58:17.556Z,99091.92
2018-04-02T15:00:45.212Z,99086.11
2018-04-02T15:03:12.780Z,99085.63
2018-04-02T15:05:40.342Z,99083.79
2018-04-02T15:08:07.982Z,99081.27
2018-04-02T15:10:35.528Z,99084.08
2018-04-02T15:13:03.975Z,99077.94
2018-04-02T15:15:33.641Z,99072.31
2018-04-02T15:18:01.412Z,99079.27
2018-04-02T15:20:29.029Z,99080.12
2018-04-02T15:22:56.621Z,99077.61
2018-04-02T15:25:36.178Z,99072.66
2018-04-02T15:29:50.652Z,99077.58
2018-04-02T15:32:18.917Z,99074.79
2018-04-02T15:34:47.027Z,99065.96
2018-04-02T15:37:16.861Z,99067.67
2018-04-02T15:39:44.542Z,99073.48
2018-04-02T15:42:14.682Z,99069.64
2018-04-02T15:44:42.586Z,99075.84
2018-04-02T15:47:10.753Z,99076.17
2018-04-02T16:02:39.878Z,99071.17
2018-04-02T16:05:08.366Z,99069.02
2018-04-02T16:07:35.970Z,99075.94
2018-04-02T16:10:03.548Z,99071.22
2018-04-02T16:12:31.456Z,99069.09
2018-04-02T16:14:59.011Z,99067.77
2018-04-02T16:17:26.616Z,99068.53
2018-04-02T16:19:54.201Z,99069.48
2018-04-02T16:22:22.130Z,99059.05
2018-04-02T16:24:49.933Z,99063.28
2018-04-02T16:27:17.704Z,99064.14
2018-04-02T16:29:45.317Z,99070.97
2018-04-02T16:32:13.153Z,99070.87
2018-04-02T16:34:40.643Z,99068.64
2018-04-02T16:37:08.253Z,99070.33
2018-04-02T16:39:35.866Z,99064.63
2018-04-02T16:42:03.502Z,99060.23
2018-04-02T16:44:31.026Z,99054.15
2018-04-02T16:46:58.592Z,99055.83
2018-04-02T16:49:26.154Z,99046.60
2018-04-02T16:51:53.822Z,99046.81
2018-04-02T16:54:21.399Z,99042.80
2018-04-02T16:56:49.013Z,99050.51
2018-04-02T16:59:16.593Z,99049.28
2018-04-02T17:01:44.123Z,99045.57
2018-04-02T17:04:12.109Z,99050.34
2018-04-02T17:06:39.712Z,99052.31
2018-04-02T17:09:07.387Z,99049.85
2018-04-02T17:11:34.942Z,99051.70
2018-04-02T17:14:02.450Z,99045.65
2018-04-02T17:16:30.057Z,99055.02
2018-04-02T17:18:57.587Z,99040.95
2018-04-02T17:21:25.185Z,99047.31
2018-04-02T17:23:52.749Z,99050.17
2018-04-02T17:26:20.240Z,99042.77
2018-04-02T17:28:47.791Z,99047.97
2018-04-02T17:31:15.324Z,99054.27
2018-04-02T17:33:42.833Z,99057.52
2018-04-02T17:36:10.406Z,99056.27
2018-04-02T17:38:37.943Z,99056.11
2018-04-02T17:41:05.482Z,99060.95
2018-04-02T17:43:32.986Z,99054.77
2018-04-02T17:46:00.542Z,99051.09
2018-04-02T17:48:28.014Z,99055.55
2018-04-02T17:50:55.605Z,99055.13
2018-04-02T17:53:23.146Z,99056.94
2018-04-02T17:55:50.664Z,99057.73
2018-04-02T17:58:18.203Z,99058.95
2018-04-02T18:00:45.737Z,99065.54
2018-04-02T18:03:13.346Z,99064.03
2018-04-02T18:05:40.851Z,99057.16
2018-04-02T18:08:08.419Z,99064.34
2018-04-02T18:10:35.957Z,99066.41
2018-04-02T18:13:03.480Z,99066.21
2018-04-02T18:15:30.966Z,99067.27
2018-04-02T18:17:58.529Z,99063.13
2018-04-02T18:20:26.030Z,99066.34
2018-04-02T18:22:53.536Z,99066.58
2018-04-02T18:25:21.036Z,99071.35
2018-04-02T18:27:48.570Z,99071.61
2018-04-02T18:30:16.120Z,99070.13
2018-04-02T18:32:43.636Z,99069.89
2018-04-02T18:35:11.174Z,99070.00
2018-04-02T18:37:42.199Z,99067.64
2018-04-02T18:40:09.703Z,99071.22
2018-04-02T18:42:37.575Z,99074.38
2018-04-02T18:45:05.140Z,99074.86
2018-04-02T18:47:32.810Z,99068.17
2018-04-02T19:08:40.273Z,99070.95
2018-04-02T19:11:07.881Z,99068.89
2018-04-02T19:13:35.358Z,99078.15
2018-04-02T19:16:03.121Z,99077.72
2018-04-02T19:18:30.641Z,99077.39
2018-04-02T19:20:58.244Z,99078.39
2018-04-02T19:23:25.703Z,99073.77
2018-04-02T19:25:53.261Z,99073.86
2018-04-02T19:28:20.810Z,99073.10
2018-04-02T19:30:48.762Z,99067.20
2018-04-02T19:33:18.329Z,99060.88
2018-04-02T19:35:45.897Z,99066.02
2018-04-02T19:38:13.381Z,99062.28
2018-04-02T19:40:40.957Z,99056.47
2018-04-02T19:43:09.025Z,99064.17
2018-04-02T19:45:36.512Z,99061.23
2018-04-02T19:48:04.097Z,99062.18
2018-04-02T19:50:31.596Z,99058.45
2018-04-02T19:52:59.109Z,99055.00
2018-04-02T19:55:28.046Z,99051.64
2018-04-02T19:57:55.594Z,99047.86
2018-04-02T20:00:23.257Z,99052.58
2018-04-02T20:02:50.725Z,99046.59
2018-04-02T20:05:18.210Z,99045.78
2018-04-02T20:07:45.901Z,99045.40
2018-04-02T20:10:13.415Z,99049.23
2018-04-02T20:12:41.889Z,99042.89
2018-04-02T20:15:09.429Z,99042.05
2018-04-02T20:17:37.092Z,99041.67
2018-04-02T20:20:05.752Z,99037.12
2018-04-02T20:22:33.285Z,99037.59
2018-04-02T20:25:00.893Z,99035.94
2018-04-02T20:27:28.571Z,99029.65
2018-04-02T20:29:56.147Z,99021.57
2018-04-02T20:32:23.705Z,99021.66
2018-04-02T20:34:51.274Z,99021.31
2018-04-02T20:37:18.783Z,99016.64
2018-04-02T20:39:46.421Z,99015.79
2018-04-02T20:42:13.910Z,99017.56
2018-04-02T20:44:41.428Z,99022.20
2018-04-02T20:47:09.047Z,99020.16
2018-04-02T20:49:36.557Z,99021.86
2018-04-02T20:52:04.722Z,99014.17
2018-04-02T20:54:32.259Z,99011.16
2018-04-02T20:56:59.747Z,99009.84
2018-04-02T20:59:27.227Z,99005.56
2018-04-02T21:01:54.774Z,99002.59
2018-04-02T21:04:22.282Z,98997.15
2018-04-02T21:06:49.784Z,98998.50
2018-04-02T21:09:17.294Z,98995.11
2018-04-02T21:11:44.800Z,98992.22
2018-04-02T21:14:12.311Z,98995.66
2018-04-02T21:16:39.999Z,98997.77
2018-04-02T21:19:07.544Z,98994.34
2018-04-02T21:21:35.079Z,98982.92
2018-04-02T21:24:02.587Z,98984.54
2018-04-02T21:26:30.134Z,98991.41
2018-04-02T21:28:57.651Z,98990.67
2018-04-02T21:31:25.191Z,98989.05
2018-04-02T21:33:53.265Z,98992.09
2018-04-02T21:36:21.128Z,98990.40
2018-04-02T21:38:48.603Z,98986.58
2018-04-02T21:41:16.109Z,98982.27
2018-04-02T21:43:43.626Z,98977.20
2018-04-02T21:46:11.096Z,98975.47
2018-04-02T21:48:38.594Z,98975.27
2018-04-02T21:51:06.121Z,98977.44
2018-04-02T21:53:33.598Z,98971.16
2018-04-02T21:56:01.092Z,98974.09
2018-04-02T21:58:29.540Z,98968.66
2018-04-02T22:00:57.029Z,98969.05
2018-04-02T22:03:24.562Z,98969.04
2018-04-02T22:05:52.094Z,98974.60
2018-04-02T22:08:19.595Z,98972.48
2018-04-02T22:10:47.087Z,98963.14
2018-04-02T22:13:14.639Z,98963.14
2018-04-02T22:15:42.156Z,98962.58
2018-04-02T22:18:09.654Z,98958.67
2018-04-02T22:20:37.178Z,98961.17
2018-04-02T22:23:04.681Z,98959.98
2018-04-02T22:25:32.210Z,98958.38
2018-04-02T22:27:59.724Z,98954.55
2018-04-02T22:30:27.233Z,98958.47
2018-04-02T22:32:54.703Z,98950.73
2018-04-02T22:35:23.543Z,98955.73
2018-04-02T22:37:50.997Z,98951.03
2018-04-02T22:40:18.520Z,98954.86
2018-04-02T22:42:46.018Z,98947.63
2018-04-02T22:45:13.484Z,98944.75
2018-04-02T22:47:40.970Z,98944.83
2018-04-02T22:50:08.459Z,98934.22
2018-04-02T22:52:35.922Z,98930.48
2018-04-02T22:55:03.412Z,98929.30
2018-04-02T22:57:30.908Z,98927.47
2018-04-02T22:59:58.511Z,98922.41
2018-04-02T23:02:25.981Z,98927.98
2018-04-02T23:04:54.195Z,98925.98
2018-04-02T23:07:21.746Z,98923.95
2018-04-02T23:09:49.230Z,98918.39
2018-04-02T23:12:16.708Z,98923.10
2018-04-02T23:14:44.987Z,98919.91
2018-04-02T23:17:12.491Z,98918.31
2018-04-02T23:19:39.995Z,98914.61
2018-04-02T23:22:07.519Z,98914.23
2018-04-02T23:24:35.033Z,98914.31
2018-04-02T23:27:02.532Z,98917.03
2018-04-02T23:29:30.037Z,98916.30
2018-04-02T23:31:57.481Z,98917.80
2018-04-02T23:34:24.944Z,98917.94
2018-04-02T23:36:52.461Z,98918.05
2018-04-02T23:39:19.971Z,98915.61
2018-04-02T23:41:47.468Z,98908.50
2018-04-02T23:44:14.947Z,98903.09
2018-04-02T23:46:42.476Z,98909.94
2018-04-02T23:49:09.937Z,98903.64
2018-04-02T23:51:37.387Z,98897.34
2018-04-02T23:54:04.848Z,98902.77
2018-04-02T23:56:32.304Z,98900.22
2018-04-02T23:58:59.798Z,98904.09
